sensor_id;sensor_type;location;lat;lon;timestamp;P1;durP1;ratioP1;P2;durP2;ratioP2
27804;SDS011;15183;51.350;11.102;2023-03-20T00:02:05;6.93;;;5.32;;
27804;SDS011;15183;51.350;11.102;2023-03-20T00:04:32;6.60;;;5.22;;
27804;SDS011;15183;51.350;11.102;2023-03-20T00:06:59;9.05;;;5.70;;
27804;SDS011;15183;51.350;11.102;2023-03-20T00:09:25;11.23;;;7.75;;
27804;SDS011;15183;51.350;11.102;2023-03-20T00:11:53;13.13;;;9.00;;
27804;SDS011;15183;51.350;11.102;2023-03-20T00:14:20;10.13;;;6.25;;
27804;SDS011;15183;51.350;11.102;2023-03-20T00:16:49;9.15;;;6.30;;
27804;SDS011;15183;51.350;11.102;2023-03-20T00:19:20;9.07;;;6.07;;
27804;SDS011;15183;51.350;11.102;2023-03-20T00:21:51;10.15;;;6.55;;
27804;SDS011;15183;51.350;11.102;2023-03-20T00:24:20;9.60;;;5.15;;
27804;SDS011;15183;51.350;11.102;2023-03-20T00:26:47;8.57;;;5.03;;
27804;SDS011;15183;51.350;11.102;2023-03-20T00:29:25;7.40;;;4.97;;
27804;SDS011;15183;51.350;11.102;2023-03-20T00:31:55;10.15;;;7.43;;
27804;SDS011;15183;51.350;11.102;2023-03-20T00:34:24;12.52;;;8.50;;
27804;SDS011;15183;51.350;11.102;2023-03-20T00:36:53;9.90;;;7.03;;
27804;SDS011;15183;51.350;11.102;2023-03-20T00:39:21;8.95;;;6.28;;
27804;SDS011;15183;51.350;11.102;2023-03-20T00:41:52;6.10;;;4.50;;
27804;SDS011;15183;51.350;11.102;2023-03-20T00:44:36;6.43;;;4.40;;
27804;SDS011;15183;51.350;11.102;2023-03-20T00:47:12;5.40;;;3.70;;
27804;SDS011;15183;51.350;11.102;2023-03-20T00:49:45;5.10;;;3.80;;
27804;SDS011;15183;51.350;11.102;2023-03-20T00:52:18;4.75;;;3.53;;
27804;SDS011;15183;51.350;11.102;2023-03-20T00:54:46;4.38;;;3.17;;
27804;SDS011;15183;51.350;11.102;2023-03-20T00:57:13;5.95;;;4.20;;
27804;SDS011;15183;51.350;11.102;2023-03-20T01:00:04;3.03;;;2.67;;
27804;SDS011;15183;51.350;11.102;2023-03-20T01:02:36;9.73;;;6.78;;
27804;SDS011;15183;51.350;11.102;2023-03-20T01:05:02;6.07;;;4.18;;
27804;SDS011;15183;51.350;11.102;2023-03-20T01:07:30;4.90;;;3.97;;
27804;SDS011;15183;51.350;11.102;2023-03-20T01:09:56;8.70;;;6.13;;
27804;SDS011;15183;51.350;11.102;2023-03-20T01:12:23;8.32;;;5.65;;
27804;SDS011;15183;51.350;11.102;2023-03-20T01:14:50;7.60;;;5.40;;
27804;SDS011;15183;51.350;11.102;2023-03-20T01:17:21;5.25;;;3.70;;
27804;SDS011;15183;51.350;11.102;2023-03-20T01:19:49;6.88;;;5.07;;
27804;SDS011;15183;51.350;11.102;2023-03-20T01:22:16;4.68;;;3.42;;
27804;SDS011;15183;51.350;11.102;2023-03-20T01:24:43;3.15;;;2.83;;
27804;SDS011;15183;51.350;11.102;2023-03-20T01:27:14;5.80;;;4.18;;
27804;SDS011;15183;51.350;11.102;2023-03-20T01:29:43;4.28;;;3.28;;
27804;SDS011;15183;51.350;11.102;2023-03-20T01:32:12;5.38;;;3.38;;
27804;SDS011;15183;51.350;11.102;2023-03-20T01:34:44;3.80;;;2.95;;
27804;SDS011;15183;51.350;11.102;2023-03-20T01:37:11;2.75;;;2.33;;
27804;SDS011;15183;51.350;11.102;2023-03-20T01:39:42;5.22;;;2.33;;
27804;SDS011;15183;51.350;11.102;2023-03-20T01:42:10;4.53;;;2.92;;
27804;SDS011;15183;51.350;11.102;2023-03-20T01:44:40;5.10;;;2.75;;
27804;SDS011;15183;51.350;11.102;2023-03-20T01:47:14;6.72;;;4.45;;
27804;SDS011;15183;51.350;11.102;2023-03-20T01:52:53;6.73;;;4.87;;
27804;SDS011;15183;51.350;11.102;2023-03-20T01:55:29;9.25;;;5.78;;
27804;SDS011;15183;51.350;11.102;2023-03-20T01:57:58;6.13;;;4.18;;
27804;SDS011;15183;51.350;11.102;2023-03-20T02:00:28;6.43;;;4.43;;
27804;SDS011;15183;51.350;11.102;2023-03-20T02:02:55;6.75;;;4.60;;
27804;SDS011;15183;51.350;11.102;2023-03-20T02:05:22;6.18;;;4.30;;
27804;SDS011;15183;51.350;11.102;2023-03-20T02:07:53;6.30;;;4.30;;
27804;SDS011;15183;51.350;11.102;2023-03-20T02:10:30;4.93;;;3.45;;
27804;SDS011;15183;51.350;11.102;2023-03-20T02:12:56;4.00;;;2.65;;
27804;SDS011;15183;51.350;11.102;2023-03-20T02:15:25;4.85;;;3.25;;
27804;SDS011;15183;51.350;11.102;2023-03-20T02:17:52;4.88;;;3.20;;
27804;SDS011;15183;51.350;11.102;2023-03-20T02:20:21;5.30;;;3.42;;
27804;SDS011;15183;51.350;11.102;2023-03-20T02:26:02;4.13;;;3.25;;
27804;SDS011;15183;51.350;11.102;2023-03-20T02:37:29;4.97;;;2.95;;
27804;SDS011;15183;51.350;11.102;2023-03-20T02:44:00;2.97;;;2.67;;
27804;SDS011;15183;51.350;11.102;2023-03-20T02:46:53;3.45;;;2.35;;
27804;SDS011;15183;51.350;11.102;2023-03-20T03:02:49;5.38;;;3.30;;
27804;SDS011;15183;51.350;11.102;2023-03-20T03:05:07;3.83;;;3.08;;
27804;SDS011;15183;51.350;11.102;2023-03-20T03:07:57;6.90;;;3.97;;
27804;SDS011;15183;51.350;11.102;2023-03-20T03:10:29;5.82;;;2.83;;
27804;SDS011;15183;51.350;11.102;2023-03-20T03:13:06;3.65;;;2.58;;
27804;SDS011;15183;51.350;11.102;2023-03-20T03:15:41;3.90;;;2.72;;
27804;SDS011;15183;51.350;11.102;2023-03-20T03:18:13;4.63;;;2.33;;
27804;SDS011;15183;51.350;11.102;2023-03-20T03:20:44;2.80;;;2.42;;
27804;SDS011;15183;51.350;11.102;2023-03-20T03:23:30;3.55;;;2.65;;
27804;SDS011;15183;51.350;11.102;2023-03-20T03:26:14;4.75;;;2.92;;
27804;SDS011;15183;51.350;11.102;2023-03-20T03:28:54;2.80;;;2.40;;
27804;SDS011;15183;51.350;11.102;2023-03-20T03:31:26;3.95;;;2.42;;
27804;SDS011;15183;51.350;11.102;2023-03-20T03:33:55;3.83;;;2.90;;
27804;SDS011;15183;51.350;11.102;2023-03-20T03:42:34;2.58;;;2.17;;
27804;SDS011;15183;51.350;11.102;2023-03-20T03:47:52;2.50;;;1.90;;
27804;SDS011;15183;51.350;11.102;2023-03-20T03:50:44;2.25;;;1.95;;
27804;SDS011;15183;51.350;11.102;2023-03-20T03:53:17;2.47;;;2.03;;
27804;SDS011;15183;51.350;11.102;2023-03-20T03:55:58;4.35;;;2.20;;
27804;SDS011;15183;51.350;11.102;2023-03-20T03:58:32;2.28;;;2.08;;
27804;SDS011;15183;51.350;11.102;2023-03-20T04:01:07;2.97;;;1.95;;
27804;SDS011;15183;51.350;11.102;2023-03-20T04:03:38;2.95;;;2.30;;
27804;SDS011;15183;51.350;11.102;2023-03-20T04:06:11;3.55;;;2.17;;
27804;SDS011;15183;51.350;11.102;2023-03-20T04:08:39;5.75;;;1.80;;
27804;SDS011;15183;51.350;11.102;2023-03-20T04:11:07;2.55;;;1.98;;
27804;SDS011;15183;51.350;11.102;2023-03-20T04:13:43;3.75;;;2.58;;
27804;SDS011;15183;51.350;11.102;2023-03-20T04:16:12;12.35;;;5.82;;
27804;SDS011;15183;51.350;11.102;2023-03-20T04:18:39;14.35;;;7.18;;
27804;SDS011;15183;51.350;11.102;2023-03-20T04:21:06;8.45;;;5.15;;
27804;SDS011;15183;51.350;11.102;2023-03-20T04:23:33;5.75;;;3.60;;
27804;SDS011;15183;51.350;11.102;2023-03-20T04:26:00;6.70;;;4.07;;
27804;SDS011;15183;51.350;11.102;2023-03-20T04:28:26;5.40;;;3.92;;
27804;SDS011;15183;51.350;11.102;2023-03-20T04:30:57;8.02;;;4.00;;
27804;SDS011;15183;51.350;11.102;2023-03-20T04:33:25;8.05;;;5.15;;
27804;SDS011;15183;51.350;11.102;2023-03-20T04:35:53;23.65;;;16.52;;
27804;SDS011;15183;51.350;11.102;2023-03-20T04:38:20;35.03;;;22.00;;
27804;SDS011;15183;51.350;11.102;2023-03-20T04:40:48;27.98;;;18.33;;
27804;SDS011;15183;51.350;11.102;2023-03-20T04:43:15;25.75;;;18.63;;
27804;SDS011;15183;51.350;11.102;2023-03-20T04:45:42;31.50;;;20.77;;
27804;SDS011;15183;51.350;11.102;2023-03-20T04:48:08;16.17;;;12.85;;
27804;SDS011;15183;51.350;11.102;2023-03-20T04:50:35;9.35;;;7.55;;
27804;SDS011;15183;51.350;11.102;2023-03-20T04:53:01;5.75;;;4.72;;
27804;SDS011;15183;51.350;11.102;2023-03-20T04:55:28;6.03;;;4.40;;
27804;SDS011;15183;51.350;11.102;2023-03-20T04:57:54;5.57;;;3.90;;
27804;SDS011;15183;51.350;11.102;2023-03-20T05:00:21;6.05;;;4.38;;
27804;SDS011;15183;51.350;11.102;2023-03-20T05:02:47;4.55;;;4.00;;
27804;SDS011;15183;51.350;11.102;2023-03-20T05:05:13;3.60;;;3.08;;
27804;SDS011;15183;51.350;11.102;2023-03-20T05:07:46;4.93;;;3.53;;
27804;SDS011;15183;51.350;11.102;2023-03-20T05:10:12;4.47;;;3.28;;
27804;SDS011;15183;51.350;11.102;2023-03-20T05:12:39;6.97;;;4.78;;
27804;SDS011;15183;51.350;11.102;2023-03-20T05:15:06;4.72;;;3.17;;
27804;SDS011;15183;51.350;11.102;2023-03-20T05:17:33;4.97;;;3.70;;
27804;SDS011;15183;51.350;11.102;2023-03-20T05:19:59;5.80;;;3.83;;
27804;SDS011;15183;51.350;11.102;2023-03-20T05:22:26;5.88;;;4.63;;
27804;SDS011;15183;51.350;11.102;2023-03-20T05:24:52;4.70;;;3.90;;
27804;SDS011;15183;51.350;11.102;2023-03-20T05:27:18;3.97;;;3.50;;
27804;SDS011;15183;51.350;11.102;2023-03-20T05:29:45;7.00;;;4.85;;
27804;SDS011;15183;51.350;11.102;2023-03-20T05:32:11;6.07;;;4.28;;
27804;SDS011;15183;51.350;11.102;2023-03-20T05:34:38;7.07;;;4.60;;
27804;SDS011;15183;51.350;11.102;2023-03-20T05:37:05;5.25;;;4.40;;
27804;SDS011;15183;51.350;11.102;2023-03-20T05:39:31;4.55;;;3.65;;
27804;SDS011;15183;51.350;11.102;2023-03-20T05:41:57;4.93;;;3.80;;
27804;SDS011;15183;51.350;11.102;2023-03-20T05:44:24;8.02;;;5.90;;
27804;SDS011;15183;51.350;11.102;2023-03-20T05:46:50;6.32;;;4.55;;
27804;SDS011;15183;51.350;11.102;2023-03-20T05:49:16;5.45;;;4.40;;
27804;SDS011;15183;51.350;11.102;2023-03-20T05:51:43;8.57;;;3.90;;
27804;SDS011;15183;51.350;11.102;2023-03-20T05:54:10;5.95;;;4.38;;
27804;SDS011;15183;51.350;11.102;2023-03-20T05:56:36;9.45;;;5.38;;
27804;SDS011;15183;51.350;11.102;2023-03-20T05:59:02;6.72;;;4.78;;
27804;SDS011;15183;51.350;11.102;2023-03-20T06:01:29;7.35;;;4.72;;
27804;SDS011;15183;51.350;11.102;2023-03-20T06:03:55;6.32;;;3.53;;
27804;SDS011;15183;51.350;11.102;2023-03-20T06:06:21;5.38;;;4.22;;
27804;SDS011;15183;51.350;11.102;2023-03-20T06:08:48;5.13;;;3.75;;
27804;SDS011;15183;51.350;11.102;2023-03-20T06:11:14;5.30;;;3.95;;
27804;SDS011;15183;51.350;11.102;2023-03-20T06:13:42;4.60;;;3.22;;
27804;SDS011;15183;51.350;11.102;2023-03-20T06:16:08;4.10;;;3.42;;
27804;SDS011;15183;51.350;11.102;2023-03-20T06:18:35;5.90;;;4.05;;
27804;SDS011;15183;51.350;11.102;2023-03-20T06:21:01;4.30;;;2.92;;
27804;SDS011;15183;51.350;11.102;2023-03-20T06:23:27;4.97;;;2.95;;
27804;SDS011;15183;51.350;11.102;2023-03-20T06:25:54;3.15;;;2.67;;
27804;SDS011;15183;51.350;11.102;2023-03-20T06:28:20;3.60;;;3.22;;
27804;SDS011;15183;51.350;11.102;2023-03-20T06:30:49;3.72;;;2.80;;
27804;SDS011;15183;51.350;11.102;2023-03-20T06:33:17;4.07;;;2.45;;
27804;SDS011;15183;51.350;11.102;2023-03-20T06:35:44;3.55;;;3.03;;
27804;SDS011;15183;51.350;11.102;2023-03-20T06:38:11;4.90;;;3.33;;
27804;SDS011;15183;51.350;11.102;2023-03-20T06:40:38;5.28;;;2.80;;
27804;SDS011;15183;51.350;11.102;2023-03-20T06:43:04;5.40;;;3.88;;
27804;SDS011;15183;51.350;11.102;2023-03-20T06:45:30;8.18;;;4.72;;
27804;SDS011;15183;51.350;11.102;2023-03-20T06:47:57;5.68;;;4.95;;
27804;SDS011;15183;51.350;11.102;2023-03-20T06:50:24;7.38;;;5.20;;
27804;SDS011;15183;51.350;11.102;2023-03-20T06:52:50;7.25;;;4.93;;
27804;SDS011;15183;51.350;11.102;2023-03-20T06:55:17;8.13;;;5.53;;
27804;SDS011;15183;51.350;11.102;2023-03-20T06:57:43;8.93;;;6.15;;
27804;SDS011;15183;51.350;11.102;2023-03-20T07:00:10;8.82;;;6.07;;
27804;SDS011;15183;51.350;11.102;2023-03-20T07:02:37;8.32;;;5.53;;
27804;SDS011;15183;51.350;11.102;2023-03-20T07:05:04;10.48;;;6.35;;
27804;SDS011;15183;51.350;11.102;2023-03-20T07:07:31;10.80;;;6.28;;
27804;SDS011;15183;51.350;11.102;2023-03-20T07:09:58;13.48;;;9.80;;
27804;SDS011;15183;51.350;11.102;2023-03-20T07:12:24;15.90;;;10.30;;
27804;SDS011;15183;51.350;11.102;2023-03-20T07:14:53;15.77;;;10.75;;
27804;SDS011;15183;51.350;11.102;2023-03-20T07:17:20;15.57;;;10.90;;
27804;SDS011;15183;51.350;11.102;2023-03-20T07:19:48;15.82;;;10.55;;
27804;SDS011;15183;51.350;11.102;2023-03-20T07:22:21;17.95;;;11.65;;
27804;SDS011;15183;51.350;11.102;2023-03-20T07:24:51;17.70;;;11.77;;
27804;SDS011;15183;51.350;11.102;2023-03-20T07:27:18;17.48;;;12.15;;
27804;SDS011;15183;51.350;11.102;2023-03-20T07:29:45;15.80;;;11.25;;
27804;SDS011;15183;51.350;11.102;2023-03-20T07:32:12;20.13;;;12.02;;
27804;SDS011;15183;51.350;11.102;2023-03-20T07:34:38;20.33;;;14.13;;
27804;SDS011;15183;51.350;11.102;2023-03-20T07:37:05;22.35;;;14.32;;
27804;SDS011;15183;51.350;11.102;2023-03-20T07:39:31;22.85;;;13.60;;
27804;SDS011;15183;51.350;11.102;2023-03-20T07:41:58;21.48;;;13.65;;
27804;SDS011;15183;51.350;11.102;2023-03-20T07:48:06;22.67;;;14.15;;
27804;SDS011;15183;51.350;11.102;2023-03-20T07:50:33;20.90;;;12.70;;
27804;SDS011;15183;51.350;11.102;2023-03-20T07:52:59;21.08;;;13.65;;
27804;SDS011;15183;51.350;11.102;2023-03-20T07:55:25;21.58;;;12.50;;
27804;SDS011;15183;51.350;11.102;2023-03-20T07:57:52;21.05;;;13.35;;
27804;SDS011;15183;51.350;11.102;2023-03-20T08:00:18;19.30;;;13.07;;
27804;SDS011;15183;51.350;11.102;2023-03-20T08:02:45;23.98;;;13.60;;
27804;SDS011;15183;51.350;11.102;2023-03-20T08:05:11;23.35;;;13.75;;
27804;SDS011;15183;51.350;11.102;2023-03-20T08:07:38;20.80;;;13.65;;
27804;SDS011;15183;51.350;11.102;2023-03-20T08:10:04;19.70;;;12.07;;
27804;SDS011;15183;51.350;11.102;2023-03-20T08:12:31;21.55;;;13.05;;
27804;SDS011;15183;51.350;11.102;2023-03-20T08:14:58;25.88;;;15.80;;
27804;SDS011;15183;51.350;11.102;2023-03-20T08:17:24;23.65;;;14.73;;
27804;SDS011;15183;51.350;11.102;2023-03-20T08:19:51;20.50;;;14.00;;
27804;SDS011;15183;51.350;11.102;2023-03-20T08:22:17;24.77;;;15.90;;
27804;SDS011;15183;51.350;11.102;2023-03-20T08:24:43;22.95;;;15.30;;
27804;SDS011;15183;51.350;11.102;2023-03-20T08:27:10;25.17;;;15.30;;
27804;SDS011;15183;51.350;11.102;2023-03-20T08:29:36;24.55;;;15.75;;
27804;SDS011;15183;51.350;11.102;2023-03-20T08:32:03;26.13;;;15.80;;
27804;SDS011;15183;51.350;11.102;2023-03-20T08:34:30;27.52;;;16.52;;
27804;SDS011;15183;51.350;11.102;2023-03-20T08:36:58;28.67;;;16.58;;
27804;SDS011;15183;51.350;11.102;2023-03-20T08:39:24;27.92;;;18.05;;
27804;SDS011;15183;51.350;11.102;2023-03-20T08:41:51;28.10;;;18.08;;
27804;SDS011;15183;51.350;11.102;2023-03-20T08:44:17;32.45;;;20.23;;
27804;SDS011;15183;51.350;11.102;2023-03-20T08:46:43;32.72;;;20.60;;
27804;SDS011;15183;51.350;11.102;2023-03-20T08:49:11;32.95;;;18.70;;
27804;SDS011;15183;51.350;11.102;2023-03-20T08:51:37;28.83;;;18.50;;
27804;SDS011;15183;51.350;11.102;2023-03-20T08:54:04;27.63;;;18.10;;
27804;SDS011;15183;51.350;11.102;2023-03-20T08:56:30;36.30;;;20.33;;
27804;SDS011;15183;51.350;11.102;2023-03-20T08:58:57;39.47;;;25.15;;
27804;SDS011;15183;51.350;11.102;2023-03-20T09:01:23;36.92;;;21.80;;
27804;SDS011;15183;51.350;11.102;2023-03-20T09:03:49;36.22;;;19.52;;
27804;SDS011;15183;51.350;11.102;2023-03-20T09:06:17;34.17;;;21.75;;
27804;SDS011;15183;51.350;11.102;2023-03-20T09:08:43;35.78;;;20.77;;
27804;SDS011;15183;51.350;11.102;2023-03-20T09:11:09;33.25;;;19.08;;
27804;SDS011;15183;51.350;11.102;2023-03-20T09:13:36;31.45;;;19.50;;
27804;SDS011;15183;51.350;11.102;2023-03-20T09:16:03;32.80;;;18.60;;
27804;SDS011;15183;51.350;11.102;2023-03-20T09:18:29;32.03;;;18.88;;
27804;SDS011;15183;51.350;11.102;2023-03-20T09:20:56;30.10;;;19.10;;
27804;SDS011;15183;51.350;11.102;2023-03-20T09:23:23;35.63;;;20.95;;
27804;SDS011;15183;51.350;11.102;2023-03-20T09:25:49;32.95;;;20.10;;
27804;SDS011;15183;51.350;11.102;2023-03-20T09:28:15;33.08;;;20.38;;
27804;SDS011;15183;51.350;11.102;2023-03-20T09:30:42;35.75;;;21.20;;
27804;SDS011;15183;51.350;11.102;2023-03-20T09:33:09;33.40;;;20.75;;
27804;SDS011;15183;51.350;11.102;2023-03-20T09:35:36;42.38;;;23.65;;
27804;SDS011;15183;51.350;11.102;2023-03-20T09:38:03;34.40;;;21.05;;
27804;SDS011;15183;51.350;11.102;2023-03-20T09:40:30;31.13;;;19.77;;
27804;SDS011;15183;51.350;11.102;2023-03-20T09:55:11;30.05;;;18.05;;
27804;SDS011;15183;51.350;11.102;2023-03-20T09:57:43;29.40;;;18.50;;
27804;SDS011;15183;51.350;11.102;2023-03-20T10:00:17;33.40;;;19.90;;
27804;SDS011;15183;51.350;11.102;2023-03-20T10:05:17;31.85;;;19.90;;
27804;SDS011;15183;51.350;11.102;2023-03-20T10:07:50;33.78;;;20.05;;
27804;SDS011;15183;51.350;11.102;2023-03-20T10:16:39;36.63;;;19.38;;
27804;SDS011;15183;51.350;11.102;2023-03-20T10:19:44;31.42;;;19.10;;
27804;SDS011;15183;51.350;11.102;2023-03-20T10:22:31;30.23;;;18.13;;
27804;SDS011;15183;51.350;11.102;2023-03-20T10:27:56;27.70;;;17.67;;
27804;SDS011;15183;51.350;11.102;2023-03-20T10:42:46;28.08;;;16.83;;
27804;SDS011;15183;51.350;11.102;2023-03-20T10:47:52;35.53;;;19.67;;
27804;SDS011;15183;51.350;11.102;2023-03-20T10:50:22;31.60;;;19.10;;
27804;SDS011;15183;51.350;11.102;2023-03-20T10:52:56;36.80;;;22.45;;
27804;SDS011;15183;51.350;11.102;2023-03-20T10:55:25;34.67;;;21.83;;
27804;SDS011;15183;51.350;11.102;2023-03-20T10:58:21;54.57;;;29.37;;
27804;SDS011;15183;51.350;11.102;2023-03-20T11:00:52;33.17;;;20.65;;
27804;SDS011;15183;51.350;11.102;2023-03-20T11:03:25;36.17;;;22.55;;
27804;SDS011;15183;51.350;11.102;2023-03-20T11:06:15;35.50;;;21.70;;
27804;SDS011;15183;51.350;11.102;2023-03-20T11:08:52;40.17;;;23.63;;
27804;SDS011;15183;51.350;11.102;2023-03-20T11:11:26;37.65;;;23.13;;
27804;SDS011;15183;51.350;11.102;2023-03-20T11:14:04;36.08;;;22.60;;
27804;SDS011;15183;51.350;11.102;2023-03-20T11:16:46;36.63;;;22.55;;
27804;SDS011;15183;51.350;11.102;2023-03-20T11:19:16;31.92;;;19.45;;
27804;SDS011;15183;51.350;11.102;2023-03-20T11:21:47;29.58;;;19.15;;
27804;SDS011;15183;51.350;11.102;2023-03-20T11:24:36;27.08;;;17.92;;
27804;SDS011;15183;51.350;11.102;2023-03-20T11:27:08;25.90;;;17.90;;
27804;SDS011;15183;51.350;11.102;2023-03-20T11:29:42;23.98;;;16.08;;
27804;SDS011;15183;51.350;11.102;2023-03-20T11:32:27;26.85;;;16.95;;
27804;SDS011;15183;51.350;11.102;2023-03-20T11:35:17;22.80;;;14.18;;
27804;SDS011;15183;51.350;11.102;2023-03-20T11:37:51;21.75;;;14.25;;
27804;SDS011;15183;51.350;11.102;2023-03-20T11:40:31;24.38;;;16.20;;
27804;SDS011;15183;51.350;11.102;2023-03-20T11:45:25;26.40;;;16.75;;
27804;SDS011;15183;51.350;11.102;2023-03-20T11:48:03;28.52;;;18.52;;
27804;SDS011;15183;51.350;11.102;2023-03-20T11:50:32;31.23;;;19.90;;
27804;SDS011;15183;51.350;11.102;2023-03-20T11:53:24;30.60;;;19.30;;
27804;SDS011;15183;51.350;11.102;2023-03-20T12:04:19;29.10;;;17.40;;
27804;SDS011;15183;51.350;11.102;2023-03-20T12:06:58;21.10;;;12.98;;
27804;SDS011;15183;51.350;11.102;2023-03-20T12:18:55;22.25;;;15.30;;
27804;SDS011;15183;51.350;11.102;2023-03-20T12:21:43;24.73;;;16.08;;
27804;SDS011;15183;51.350;11.102;2023-03-20T12:27:20;23.55;;;14.15;;
27804;SDS011;15183;51.350;11.102;2023-03-20T12:29:57;17.40;;;11.43;;
27804;SDS011;15183;51.350;11.102;2023-03-20T12:32:50;17.40;;;11.40;;
27804;SDS011;15183;51.350;11.102;2023-03-20T12:35:33;18.02;;;11.80;;
27804;SDS011;15183;51.350;11.102;2023-03-20T12:38:15;16.77;;;11.68;;
27804;SDS011;15183;51.350;11.102;2023-03-20T12:40:54;14.88;;;10.85;;
27804;SDS011;15183;51.350;11.102;2023-03-20T12:46:32;14.95;;;9.65;;
27804;SDS011;15183;51.350;11.102;2023-03-20T12:49:20;15.15;;;10.05;;
27804;SDS011;15183;51.350;11.102;2023-03-20T12:52:35;12.32;;;8.85;;
27804;SDS011;15183;51.350;11.102;2023-03-20T13:00:57;12.32;;;8.45;;
27804;SDS011;15183;51.350;11.102;2023-03-20T13:09:42;19.67;;;12.63;;
27804;SDS011;15183;51.350;11.102;2023-03-20T13:12:28;22.33;;;13.32;;
27804;SDS011;15183;51.350;11.102;2023-03-20T13:18:50;24.30;;;15.48;;
27804;SDS011;15183;51.350;11.102;2023-03-20T13:21:53;23.73;;;15.18;;
27804;SDS011;15183;51.350;11.102;2023-03-20T13:24:52;25.92;;;15.02;;
27804;SDS011;15183;51.350;11.102;2023-03-20T13:30:23;29.10;;;18.17;;
27804;SDS011;15183;51.350;11.102;2023-03-20T13:36:15;29.92;;;17.35;;
27804;SDS011;15183;51.350;11.102;2023-03-20T13:39:11;30.00;;;18.52;;
27804;SDS011;15183;51.350;11.102;2023-03-20T13:42:27;33.00;;;19.10;;
27804;SDS011;15183;51.350;11.102;2023-03-20T13:45:04;28.85;;;17.45;;
27804;SDS011;15183;51.350;11.102;2023-03-20T13:47:44;29.58;;;17.17;;
27804;SDS011;15183;51.350;11.102;2023-03-20T13:50:34;33.45;;;19.27;;
27804;SDS011;15183;51.350;11.102;2023-03-20T13:53:08;30.15;;;18.35;;
27804;SDS011;15183;51.350;11.102;2023-03-20T13:55:57;29.73;;;17.25;;
27804;SDS011;15183;51.350;11.102;2023-03-20T13:58:54;28.25;;;17.88;;
27804;SDS011;15183;51.350;11.102;2023-03-20T14:04:50;33.85;;;18.40;;
27804;SDS011;15183;51.350;11.102;2023-03-20T14:07:29;28.90;;;18.17;;
27804;SDS011;15183;51.350;11.102;2023-03-20T14:13:02;37.90;;;21.88;;
27804;SDS011;15183;51.350;11.102;2023-03-20T14:15:35;33.63;;;20.13;;
27804;SDS011;15183;51.350;11.102;2023-03-20T14:18:06;34.05;;;19.50;;
27804;SDS011;15183;51.350;11.102;2023-03-20T14:20:41;34.10;;;20.70;;
27804;SDS011;15183;51.350;11.102;2023-03-20T14:23:16;35.65;;;19.73;;
27804;SDS011;15183;51.350;11.102;2023-03-20T14:25:46;32.25;;;19.13;;
27804;SDS011;15183;51.350;11.102;2023-03-20T14:30:41;36.92;;;20.92;;
27804;SDS011;15183;51.350;11.102;2023-03-20T14:35:47;31.42;;;18.55;;
27804;SDS011;15183;51.350;11.102;2023-03-20T14:38:34;29.45;;;17.60;;
27804;SDS011;15183;51.350;11.102;2023-03-20T14:41:29;30.42;;;18.48;;
27804;SDS011;15183;51.350;11.102;2023-03-20T14:44:35;30.90;;;18.75;;
27804;SDS011;15183;51.350;11.102;2023-03-20T14:47:44;30.08;;;18.10;;
27804;SDS011;15183;51.350;11.102;2023-03-20T14:53:19;29.92;;;15.85;;
27804;SDS011;15183;51.350;11.102;2023-03-20T15:01:02;30.58;;;18.25;;
27804;SDS011;15183;51.350;11.102;2023-03-20T15:03:31;28.88;;;16.88;;
27804;SDS011;15183;51.350;11.102;2023-03-20T15:05:59;29.27;;;18.17;;
27804;SDS011;15183;51.350;11.102;2023-03-20T15:08:31;32.45;;;19.27;;
27804;SDS011;15183;51.350;11.102;2023-03-20T15:11:05;35.03;;;18.75;;
27804;SDS011;15183;51.350;11.102;2023-03-20T15:13:34;29.88;;;18.67;;
27804;SDS011;15183;51.350;11.102;2023-03-20T15:16:06;37.15;;;20.83;;
27804;SDS011;15183;51.350;11.102;2023-03-20T15:19:38;29.98;;;17.40;;
27804;SDS011;15183;51.350;11.102;2023-03-20T15:21:43;32.70;;;20.05;;
27804;SDS011;15183;51.350;11.102;2023-03-20T15:24:26;33.50;;;20.77;;
27804;SDS011;15183;51.350;11.102;2023-03-20T15:26:55;26.75;;;17.65;;
27804;SDS011;15183;51.350;11.102;2023-03-20T15:29:24;29.25;;;18.35;;
27804;SDS011;15183;51.350;11.102;2023-03-20T15:31:56;32.03;;;19.58;;
27804;SDS011;15183;51.350;11.102;2023-03-20T15:34:25;28.15;;;18.58;;
27804;SDS011;15183;51.350;11.102;2023-03-20T15:36:55;29.50;;;18.80;;
27804;SDS011;15183;51.350;11.102;2023-03-20T15:39:26;35.22;;;20.77;;
27804;SDS011;15183;51.350;11.102;2023-03-20T15:41:58;35.58;;;20.85;;
27804;SDS011;15183;51.350;11.102;2023-03-20T15:44:36;30.35;;;17.52;;
27804;SDS011;15183;51.350;11.102;2023-03-20T15:47:10;24.17;;;15.77;;
27804;SDS011;15183;51.350;11.102;2023-03-20T15:49:52;28.35;;;16.80;;
27804;SDS011;15183;51.350;11.102;2023-03-20T15:52:37;26.08;;;15.55;;
27804;SDS011;15183;51.350;11.102;2023-03-20T15:55:13;26.48;;;15.77;;
27804;SDS011;15183;51.350;11.102;2023-03-20T15:57:44;26.42;;;16.13;;
27804;SDS011;15183;51.350;11.102;2023-03-20T16:00:16;25.75;;;16.23;;
27804;SDS011;15183;51.350;11.102;2023-03-20T16:05:15;22.70;;;14.23;;
27804;SDS011;15183;51.350;11.102;2023-03-20T16:07:43;25.25;;;15.30;;
27804;SDS011;15183;51.350;11.102;2023-03-20T16:10:20;25.67;;;15.05;;
27804;SDS011;15183;51.350;11.102;2023-03-20T16:12:51;25.80;;;15.75;;
27804;SDS011;15183;51.350;11.102;2023-03-20T16:15:22;35.20;;;21.50;;
27804;SDS011;15183;51.350;11.102;2023-03-20T16:17:55;35.63;;;22.52;;
27804;SDS011;15183;51.350;11.102;2023-03-20T16:20:26;33.13;;;21.50;;
27804;SDS011;15183;51.350;11.102;2023-03-20T16:23:03;32.78;;;19.50;;
27804;SDS011;15183;51.350;11.102;2023-03-20T16:25:34;25.30;;;16.77;;
27804;SDS011;15183;51.350;11.102;2023-03-20T16:28:02;22.50;;;15.48;;
27804;SDS011;15183;51.350;11.102;2023-03-20T16:30:33;23.35;;;14.60;;
27804;SDS011;15183;51.350;11.102;2023-03-20T16:33:03;21.65;;;13.95;;
27804;SDS011;15183;51.350;11.102;2023-03-20T16:35:38;22.10;;;14.05;;
27804;SDS011;15183;51.350;11.102;2023-03-20T16:38:31;23.95;;;16.77;;
27804;SDS011;15183;51.350;11.102;2023-03-20T16:44:04;21.67;;;13.98;;
27804;SDS011;15183;51.350;11.102;2023-03-20T16:47:03;19.27;;;13.00;;
27804;SDS011;15183;51.350;11.102;2023-03-20T16:49:48;18.80;;;12.73;;
27804;SDS011;15183;51.350;11.102;2023-03-20T16:52:40;18.90;;;13.20;;
27804;SDS011;15183;51.350;11.102;2023-03-20T16:55:13;20.48;;;13.43;;
27804;SDS011;15183;51.350;11.102;2023-03-20T16:57:49;19.67;;;13.82;;
27804;SDS011;15183;51.350;11.102;2023-03-20T17:00:22;18.50;;;12.77;;
27804;SDS011;15183;51.350;11.102;2023-03-20T17:03:12;20.55;;;13.85;;
27804;SDS011;15183;51.350;11.102;2023-03-20T17:08:16;19.23;;;13.25;;
27804;SDS011;15183;51.350;11.102;2023-03-20T17:10:53;19.75;;;13.40;;
27804;SDS011;15183;51.350;11.102;2023-03-20T17:13:27;20.27;;;12.55;;
27804;SDS011;15183;51.350;11.102;2023-03-20T17:15:54;20.20;;;13.45;;
27804;SDS011;15183;51.350;11.102;2023-03-20T17:18:20;19.65;;;13.15;;
27804;SDS011;15183;51.350;11.102;2023-03-20T17:20:47;21.67;;;11.77;;
27804;SDS011;15183;51.350;11.102;2023-03-20T17:23:14;18.60;;;13.35;;
27804;SDS011;15183;51.350;11.102;2023-03-20T17:25:46;19.05;;;12.32;;
27804;SDS011;15183;51.350;11.102;2023-03-20T17:28:16;21.75;;;13.88;;